createdAt,value
2018-03-06T00:01:48.734Z,10.14
2018-03-06T00:04:17.018Z,11.76
2018-03-06T00:06:45.307Z,10.38
2018-03-06T00:09:13.566Z,9.62
2018-03-06T00:11:42.708Z,11.00
2018-03-06T00:14:11.998Z,10.30
2018-03-06T00:16:40.273Z,11.74
2018-03-06T00:19:08.579Z,10.50
2018-03-06T00:21:36.878Z,11.94
2018-03-06T00:24:05.170Z,11.42
2018-03-06T00:26:33.437Z,10.22
2018-03-06T00:29:01.738Z,10.36
2018-03-06T00:31:30.004Z,10.18
2018-03-06T00:33:58.271Z,12.28
2018-03-06T00:36:26.575Z,11.76
2018-03-06T00:38:54.883Z,11.28
2018-03-06T00:41:23.145Z,11.52
2018-03-06T00:43:51.408Z,9.96
2018-03-06T00:46:19.705Z,10.58
2018-03-06T00:48:47.969Z,10.22
2018-03-06T00:51:16.271Z,11.14
2018-03-06T00:53:44.543Z,12.02
2018-03-06T00:56:12.894Z,9.94
2018-03-06T00:58:41.161Z,10.56
2018-03-06T01:01:09.439Z,10.38
2018-03-06T01:03:37.747Z,10.54
2018-03-06T01:06:06.034Z,10.16
2018-03-06T01:08:34.346Z,10.24
2018-03-06T01:11:02.610Z,10.46
2018-03-06T01:13:30.907Z,11.08
2018-03-06T01:15:59.175Z,10.86
2018-03-06T01:18:27.484Z,11.88
2018-03-06T01:20:55.755Z,10.18
2018-03-06T01:23:24.060Z,10.96
2018-03-06T01:25:52.344Z,10.84
2018-03-06T01:28:20.643Z,10.16
2018-03-06T01:30:48.942Z,9.70
2018-03-06T01:33:17.211Z,10.22
2018-03-06T01:35:45.511Z,10.56
2018-03-06T01:38:13.773Z,10.14
2018-03-06T01:40:48.263Z,9.60
2018-03-06T01:43:16.550Z,9.68
2018-03-06T01:45:44.821Z,10.70
2018-03-06T01:48:13.131Z,10.58
2018-03-06T01:50:42.523Z,10.32
2018-03-06T01:53:12.379Z,11.56
2018-03-06T01:55:41.964Z,10.20
2018-03-06T01:58:10.244Z,11.70
2018-03-06T02:00:38.547Z,10.88
2018-03-06T02:03:06.810Z,10.94
2018-03-06T02:05:35.098Z,11.12
2018-03-06T02:08:03.374Z,11.22
2018-03-06T02:10:31.676Z,10.72
2018-03-06T02:12:59.951Z,10.32
2018-03-06T02:15:28.253Z,9.24
2018-03-06T02:17:56.519Z,11.64
2018-03-06T02:20:24.827Z,11.02
2018-03-06T02:22:53.095Z,10.90
2018-03-06T02:25:21.358Z,10.58
2018-03-06T02:27:49.654Z,10.92
2018-03-06T02:30:17.926Z,10.42
2018-03-06T02:32:46.240Z,10.00
2018-03-06T02:35:14.503Z,10.12
2018-03-06T02:37:42.770Z,10.70
2018-03-06T02:40:11.926Z,11.12
2018-03-06T02:42:39.426Z,11.12
2018-03-06T02:45:07.686Z,11.18
2018-03-06T02:47:35.985Z,10.80
2018-03-06T02:50:04.255Z,11.14
2018-03-06T02:52:32.522Z,9.82
2018-03-06T02:55:00.818Z,11.04
2018-03-06T02:57:29.086Z,10.00
2018-03-06T02:59:57.377Z,9.62
2018-03-06T03:02:25.644Z,10.38
2018-03-06T03:04:53.922Z,11.18
2018-03-06T03:07:22.214Z,10.24
2018-03-06T03:09:50.483Z,10.96
2018-03-06T03:12:18.774Z,10.78
2018-03-06T03:14:47.061Z,10.66
2018-03-06T03:17:15.370Z,10.04
2018-03-06T03:19:43.634Z,10.78
2018-03-06T03:22:13.186Z,11.90
2018-03-06T03:24:45.311Z,10.78
2018-03-06T03:27:13.569Z,12.24
2018-03-06T03:29:43.054Z,10.98
2018-03-06T03:32:12.397Z,12.16
2018-03-06T03:34:43.270Z,10.28
2018-03-06T03:37:12.657Z,12.00
2018-03-06T03:39:41.852Z,12.40
2018-03-06T03:42:10.974Z,13.14
2018-03-06T03:44:42.962Z,11.42
2018-03-06T03:47:11.242Z,13.48
2018-03-06T03:49:39.505Z,11.70
2018-03-06T03:52:07.801Z,12.00
2018-03-06T03:54:39.129Z,12.10
2018-03-06T03:57:07.433Z,10.68
2018-03-06T03:59:35.691Z,8.80
2018-03-06T04:02:03.958Z,10.96
2018-03-06T04:04:32.282Z,11.10
2018-03-06T04:07:00.542Z,11.60
2018-03-06T04:09:28.845Z,13.28
2018-03-06T04:11:57.113Z,12.60
2018-03-06T04:14:25.375Z,12.08
2018-03-06T04:16:53.667Z,11.86
2018-03-06T04:19:21.958Z,11.94
2018-03-06T04:21:50.250Z,14.04
2018-03-06T04:24:18.557Z,13.50
2018-03-06T04:26:46.806Z,14.20
2018-03-06T04:29:15.068Z,14.36
2018-03-06T04:31:43.362Z,15.80
2018-03-06T04:34:12.718Z,15.22
2018-03-06T04:36:42.024Z,15.62
2018-03-06T04:39:10.286Z,14.90
2018-03-06T04:41:38.557Z,18.00
2018-03-06T04:44:06.850Z,16.00
2018-03-06T04:46:35.130Z,15.82
2018-03-06T04:49:03.394Z,19.44
2018-03-06T04:51:31.691Z,17.36
2018-03-06T04:53:59.954Z,18.98
2018-03-06T04:56:28.254Z,17.98
2018-03-06T04:58:56.520Z,18.08
2018-03-06T05:01:24.791Z,20.80
2018-03-06T05:03:53.081Z,19.54
2018-03-06T05:06:21.338Z,19.98
2018-03-06T05:08:49.635Z,20.38
2018-03-06T05:11:17.929Z,21.00
2018-03-06T05:13:46.202Z,19.20
2018-03-06T05:16:14.499Z,21.44
2018-03-06T05:18:42.798Z,20.70
2018-03-06T05:21:11.062Z,21.20
2018-03-06T05:23:39.358Z,19.74
2018-03-06T05:26:07.617Z,20.62
2018-03-06T05:28:35.911Z,19.44
2018-03-06T05:31:04.175Z,19.52
2018-03-06T05:33:32.474Z,20.76
2018-03-06T05:36:00.746Z,19.22
2018-03-06T05:38:29.038Z,17.78
2018-03-06T05:40:57.318Z,19.60
2018-03-06T05:43:25.622Z,20.22
2018-03-06T05:45:53.886Z,21.32
2018-03-06T05:48:22.155Z,19.54
2018-03-06T05:50:49.682Z,19.86
2018-03-06T05:53:17.945Z,20.70
2018-03-06T05:55:46.237Z,18.02
2018-03-06T05:58:14.498Z,20.34
2018-03-06T06:00:42.785Z,22.74
2018-03-06T06:03:11.045Z,21.46
2018-03-06T06:05:39.341Z,20.70
2018-03-06T06:08:07.610Z,19.86
2018-03-06T06:10:35.910Z,21.28
2018-03-06T06:13:04.167Z,20.06
2018-03-06T06:15:32.430Z,19.00
2018-03-06T06:18:00.722Z,20.42
2018-03-06T06:20:28.974Z,18.84
2018-03-06T06:22:57.225Z,22.60
2018-03-06T06:25:25.525Z,19.86
2018-03-06T06:27:53.791Z,22.48
2018-03-06T06:30:22.087Z,23.76
2018-03-06T06:32:50.335Z,21.92
2018-03-06T06:35:18.634Z,19.80
2018-03-06T06:37:46.891Z,20.82
2018-03-06T06:40:15.181Z,23.02
2018-03-06T06:42:43.441Z,21.44
2018-03-06T06:45:12.366Z,20.70
2018-03-06T06:47:41.622Z,21.18
2018-03-06T06:50:09.871Z,20.34
2018-03-06T06:52:38.346Z,23.06
2018-03-06T06:55:06.634Z,21.00
2018-03-06T06:57:34.168Z,20.50
2018-03-06T07:00:02.394Z,20.96
2018-03-06T07:02:30.667Z,25.16
2018-03-06T07:04:58.914Z,23.66
2018-03-06T07:07:27.198Z,23.74
2018-03-06T07:09:55.498Z,22.86
2018-03-06T07:12:23.782Z,23.92
2018-03-06T07:14:52.055Z,23.06
2018-03-06T07:17:20.335Z,21.84
2018-03-06T07:19:48.583Z,21.96
2018-03-06T07:22:16.102Z,22.66
2018-03-06T07:24:44.350Z,24.16
2018-03-06T07:27:12.638Z,24.70
2018-03-06T07:29:41.929Z,24.14
2018-03-06T07:32:10.880Z,26.66
2018-03-06T07:34:39.174Z,24.24
2018-03-06T07:37:07.422Z,23.58
2018-03-06T07:39:35.670Z,24.92
2018-03-06T07:42:03.945Z,23.64
2018-03-06T07:44:32.200Z,24.58
2018-03-06T07:47:00.486Z,24.36
2018-03-06T07:49:28.738Z,23.80
2018-03-06T07:51:56.995Z,23.86
2018-03-06T07:54:25.295Z,23.02
2018-03-06T07:56:53.547Z,23.00
2018-03-06T07:59:21.805Z,22.70
2018-03-06T08:01:50.094Z,23.40
2018-03-06T08:04:18.382Z,22.28
2018-03-06T08:06:46.662Z,25.70
2018-03-06T08:09:14.937Z,25.28
2018-03-06T08:11:42.451Z,26.46
2018-03-06T08:14:12.007Z,25.74
2018-03-06T08:16:40.254Z,25.90
2018-03-06T08:19:08.502Z,23.26
2018-03-06T08:21:36.787Z,24.16
2018-03-06T08:24:05.034Z,24.34
2018-03-06T08:26:33.326Z,25.36
2018-03-06T08:29:01.570Z,26.28
2018-03-06T08:31:29.847Z,24.40
2018-03-06T08:33:58.125Z,24.86
2018-03-06T08:36:26.374Z,24.14
2018-03-06T08:38:54.641Z,24.70
2018-03-06T08:41:22.917Z,26.56
2018-03-06T08:43:51.194Z,26.06
2018-03-06T08:46:19.482Z,25.54
2018-03-06T08:48:47.729Z,24.72
2018-03-06T08:51:15.976Z,24.98
2018-03-06T08:53:44.245Z,26.94
2018-03-06T08:56:12.502Z,27.04
2018-03-06T08:58:42.297Z,27.56
2018-03-06T09:01:09.774Z,23.64
2018-03-06T09:03:38.084Z,26.90
2018-03-06T09:06:06.307Z,26.64
2018-03-06T09:08:34.586Z,25.32
2018-03-06T09:11:02.962Z,24.98
2018-03-06T09:13:31.213Z,26.86
2018-03-06T09:15:59.477Z,26.82
2018-03-06T09:18:27.749Z,24.24
2018-03-06T09:20:56.026Z,26.70
2018-03-06T09:23:24.305Z,27.86
2018-03-06T09:25:52.578Z,27.30
2018-03-06T09:28:20.821Z,24.58
2018-03-06T09:30:49.120Z,24.98
2018-03-06T09:33:17.359Z,26.86
2018-03-06T09:35:45.638Z,26.40
2018-03-06T09:38:13.887Z,27.40
2018-03-06T09:40:42.686Z,24.34
2018-03-06T09:43:11.850Z,26.98
2018-03-06T09:45:40.992Z,25.38
2018-03-06T09:48:09.261Z,25.92
2018-03-06T09:50:37.518Z,25.54
2018-03-06T09:53:05.832Z,25.52
2018-03-06T09:55:34.086Z,25.58
2018-03-06T09:58:02.338Z,29.47
2018-03-06T10:00:30.764Z,25.68
2018-03-06T10:02:59.090Z,25.24
2018-03-06T10:05:27.361Z,25.06
2018-03-06T10:07:55.614Z,24.38
2018-03-06T10:10:27.655Z,21.20
2018-03-06T10:12:55.910Z,22.44
2018-03-06T10:15:24.208Z,23.00
2018-03-06T10:17:52.471Z,23.44
2018-03-06T10:20:20.725Z,22.94
2018-03-06T10:22:49.009Z,23.34
2018-03-06T10:25:17.271Z,24.34
2018-03-06T10:27:45.569Z,25.68
2018-03-06T10:30:13.835Z,23.90
2018-03-06T10:32:43.478Z,22.78
2018-03-06T10:35:12.818Z,25.62
2018-03-06T10:37:41.070Z,22.18
2018-03-06T10:40:09.354Z,20.94
2018-03-06T10:42:37.613Z,22.90
2018-03-06T10:45:05.907Z,22.68
2018-03-06T10:47:34.161Z,21.38
2018-03-06T10:50:02.414Z,25.36
2018-03-06T10:52:30.694Z,21.00
2018-03-06T10:54:58.950Z,21.18
2018-03-06T10:57:27.226Z,22.26
2018-03-06T10:59:55.505Z,18.42
2018-03-06T11:02:31.218Z,17.96
2018-03-06T11:04:59.499Z,16.96
2018-03-06T11:07:27.746Z,17.56
2018-03-06T11:09:56.027Z,18.82
2018-03-06T11:12:24.313Z,17.54
2018-03-06T11:14:52.561Z,18.00
2018-03-06T11:17:20.846Z,17.56
2018-03-06T11:19:49.098Z,18.62
2018-03-06T11:22:17.387Z,20.06
2018-03-06T11:24:45.704Z,19.76
2018-03-06T11:27:13.950Z,21.32
2018-03-06T11:29:42.201Z,19.78
2018-03-06T11:32:11.522Z,20.56
2018-03-06T11:34:39.774Z,18.22
2018-03-06T11:37:08.054Z,18.78
2018-03-06T11:39:36.334Z,18.06
2018-03-06T11:42:04.614Z,18.52
2018-03-06T11:44:32.898Z,19.90
2018-03-06T11:47:01.155Z,20.18
2018-03-06T11:49:29.446Z,18.40
2018-03-06T11:51:57.698Z,20.30
2018-03-06T11:54:25.990Z,18.96
2018-03-06T11:56:54.249Z,20.56
2018-03-06T11:59:22.494Z,20.06
2018-03-06T12:01:50.771Z,19.12
2018-03-06T12:04:19.050Z,21.12
2018-03-06T12:06:47.335Z,19.68
2018-03-06T12:09:15.582Z,19.26
2018-03-06T12:11:43.866Z,19.20
2018-03-06T12:14:13.285Z,22.22
2018-03-06T12:16:42.270Z,22.32
2018-03-06T12:19:11.566Z,19.12
2018-03-06T12:21:39.850Z,19.88
2018-03-06T12:24:08.099Z,20.30
2018-03-06T12:26:36.385Z,19.02
2018-03-06T12:29:04.674Z,19.16
2018-03-06T12:31:32.922Z,19.50
2018-03-06T12:34:01.173Z,19.92
2018-03-06T12:36:29.459Z,20.24
2018-03-06T12:38:57.755Z,20.72
2018-03-06T12:41:26.010Z,18.02
2018-03-06T12:43:54.262Z,20.02
2018-03-06T12:46:22.542Z,19.18
2018-03-06T12:48:50.801Z,16.90
2018-03-06T12:51:20.007Z,17.14
2018-03-06T12:53:48.253Z,15.26
2018-03-06T12:56:16.545Z,15.84
2018-03-06T12:58:44.799Z,14.42
2018-03-06T13:01:13.046Z,15.20
2018-03-06T13:03:41.656Z,14.82
2018-03-06T13:06:09.907Z,14.66
2018-03-06T13:08:38.194Z,14.44
2018-03-06T13:11:06.446Z,14.70
2018-03-06T13:13:33.934Z,15.68
2018-03-06T13:16:02.215Z,16.60
2018-03-06T13:18:30.465Z,15.62
2018-03-06T13:20:58.746Z,14.70
2018-03-06T13:23:27.031Z,15.14
2018-03-06T13:25:55.286Z,15.02
2018-03-06T13:28:23.554Z,15.88
2018-03-06T13:30:52.718Z,15.82
2018-03-06T13:33:21.022Z,14.22
2018-03-06T13:35:49.250Z,13.86
2018-03-06T13:38:17.542Z,15.52
2018-03-06T13:40:45.785Z,14.10
2018-03-06T13:43:14.042Z,12.78
2018-03-06T13:45:42.318Z,13.22
2018-03-06T13:48:11.620Z,11.94
2018-03-06T13:50:41.557Z,13.52
2018-03-06T13:53:09.834Z,13.90
2018-03-06T13:55:38.161Z,14.26
2018-03-06T13:58:06.447Z,12.68
2018-03-06T14:00:34.706Z,14.26
2018-03-06T14:03:03.006Z,14.78
2018-03-06T14:05:31.261Z,15.20
2018-03-06T14:07:59.511Z,14.28
2018-03-06T14:10:27.823Z,15.44
2018-03-06T14:12:56.070Z,15.10
2018-03-06T14:15:24.354Z,13.86
2018-03-06T14:17:51.854Z,14.86
2018-03-06T14:20:20.102Z,15.54
2018-03-06T14:22:48.386Z,16.72
2018-03-06T14:25:16.639Z,15.40
2018-03-06T14:27:44.933Z,16.68
2018-03-06T14:30:13.178Z,14.98
2018-03-06T14:32:42.574Z,15.34
2018-03-06T14:35:11.846Z,15.56
2018-03-06T14:37:40.829Z,15.64
2018-03-06T14:40:09.077Z,17.00
2018-03-06T14:42:37.362Z,16.82
2018-03-06T14:45:05.638Z,16.80
2018-03-06T14:47:33.886Z,14.30
2018-03-06T14:50:02.209Z,15.08
2018-03-06T14:52:30.452Z,15.02
2018-03-06T14:54:58.710Z,15.56
2018-03-06T14:57:26.991Z,15.74
2018-03-06T14:59:55.242Z,16.98
2018-03-06T15:02:23.527Z,17.16
2018-03-06T15:04:51.789Z,16.50
2018-03-06T15:07:20.070Z,15.20
2018-03-06T15:09:48.330Z,16.56
2018-03-06T15:12:16.618Z,15.86
2018-03-06T15:14:44.872Z,15.22
2018-03-06T15:17:13.162Z,16.96
2018-03-06T15:19:42.833Z,16.46
2018-03-06T15:22:11.124Z,16.56
2018-03-06T15:24:39.405Z,18.10
2018-03-06T15:27:07.690Z,16.98
2018-03-06T15:29:35.942Z,17.64
2018-03-06T15:32:04.234Z,16.86
2018-03-06T15:34:32.491Z,18.40
2018-03-06T15:37:00.783Z,17.22
2018-03-06T15:39:29.036Z,16.98
2018-03-06T15:41:57.322Z,16.68
2018-03-06T15:44:25.574Z,16.94
2018-03-06T15:46:53.821Z,19.04
2018-03-06T15:49:22.107Z,17.70
2018-03-06T15:51:50.394Z,17.72
2018-03-06T15:54:18.642Z,17.84
2018-03-06T15:56:46.926Z,17.76
2018-03-06T15:59:15.223Z,18.54
2018-03-06T16:01:43.487Z,18.52
2018-03-06T16:04:12.493Z,18.70
2018-03-06T16:06:41.502Z,17.28
2018-03-06T16:09:09.763Z,24.60
2018-03-06T16:11:38.062Z,18.58
2018-03-06T16:14:06.358Z,17.44
2018-03-06T16:16:34.602Z,17.20
2018-03-06T16:19:02.886Z,19.06
2018-03-06T16:21:31.172Z,20.14
2018-03-06T16:23:59.426Z,20.38
2018-03-06T16:26:27.706Z,24.48
2018-03-06T16:28:55.962Z,22.42
2018-03-06T16:31:24.247Z,28.68
2018-03-06T16:33:52.505Z,30.44
2018-03-06T16:36:20.793Z,29.44
2018-03-06T16:38:49.081Z,28.04
2018-03-06T16:41:17.330Z,23.24
2018-03-06T16:43:45.614Z,23.96
2018-03-06T16:46:13.870Z,27.86
2018-03-06T16:48:43.144Z,22.14
2018-03-06T16:51:12.081Z,21.30
2018-03-06T16:53:40.365Z,20.04
2018-03-06T16:56:08.647Z,19.90
2018-03-06T16:58:36.901Z,18.76
2018-03-06T17:01:05.183Z,18.76
2018-03-06T17:03:33.430Z,19.90
2018-03-06T17:06:01.730Z,19.68
2018-03-06T17:08:29.986Z,21.56
2018-03-06T17:10:58.242Z,21.56
2018-03-06T17:13:26.534Z,19.04
2018-03-06T17:15:54.794Z,20.82
2018-03-06T17:18:23.082Z,19.72
2018-03-06T17:20:51.338Z,20.54
2018-03-06T17:23:19.614Z,18.88
2018-03-06T17:25:47.898Z,17.40
2018-03-06T17:28:16.158Z,17.40
2018-03-06T17:30:44.474Z,17.24
2018-03-06T17:33:12.750Z,17.92
2018-03-06T17:35:41.022Z,18.96
2018-03-06T17:38:09.310Z,17.40
2018-03-06T17:40:37.610Z,18.68
2018-03-06T17:43:05.875Z,17.58
2018-03-06T17:45:34.165Z,17.82
2018-03-06T17:48:02.424Z,18.10
2018-03-06T17:50:30.714Z,19.02
2018-03-06T17:52:58.965Z,19.02
2018-03-06T17:55:27.242Z,19.44
2018-03-06T17:57:55.529Z,18.30
2018-03-06T18:00:23.783Z,18.18
2018-03-06T18:02:52.070Z,17.18
2018-03-06T18:05:20.327Z,19.44
2018-03-06T18:07:48.602Z,19.02
2018-03-06T18:10:16.951Z,20.26
2018-03-06T18:12:45.153Z,18.08
2018-03-06T18:15:13.437Z,19.98
2018-03-06T18:17:42.582Z,18.90
2018-03-06T18:20:11.410Z,19.38
2018-03-06T18:22:39.667Z,18.10
2018-03-06T18:25:07.946Z,17.88
2018-03-06T18:27:36.238Z,18.86
2018-03-06T18:30:04.494Z,18.64
2018-03-06T18:32:32.778Z,19.80
2018-03-06T18:35:01.027Z,17.14
2018-03-06T18:37:29.312Z,17.30
2018-03-06T18:39:57.603Z,17.20
2018-03-06T18:42:25.851Z,18.32
2018-03-06T18:44:54.135Z,16.72
2018-03-06T18:47:22.421Z,17.74
2018-03-06T18:50:04.978Z,18.04
2018-03-06T18:52:33.234Z,17.08
2018-03-06T18:55:01.530Z,19.30
2018-03-06T18:57:29.777Z,18.28
2018-03-06T19:13:18.595Z,19.28
2018-03-06T19:15:46.846Z,19.68
2018-03-06T19:18:15.136Z,17.40
2018-03-06T19:20:43.382Z,20.10
2018-03-06T19:23:11.920Z,18.12
2018-03-06T19:25:40.951Z,20.40
2018-03-06T19:28:09.255Z,17.32
2018-03-06T19:30:37.545Z,19.42
2018-03-06T19:33:05.802Z,19.48
2018-03-06T19:35:34.082Z,19.86
2018-03-06T19:38:02.336Z,19.32
2018-03-06T19:40:30.634Z,19.62
2018-03-06T19:42:58.890Z,20.40
2018-03-06T19:45:27.170Z,19.26
2018-03-06T19:47:55.467Z,22.04
2018-03-06T19:50:23.715Z,21.00
2018-03-06T19:52:51.971Z,23.92
2018-03-06T19:55:20.254Z,23.52
2018-03-06T19:57:48.532Z,25.92
2018-03-06T20:00:16.791Z,25.52
2018-03-06T20:02:45.086Z,27.54
2018-03-06T20:05:12.574Z,28.88
2018-03-06T20:07:41.948Z,28.16
2018-03-06T20:10:10.239Z,27.34
2018-03-06T20:12:38.571Z,26.00
2018-03-06T20:15:24.494Z,26.22
2018-03-06T20:17:52.742Z,24.16
2018-03-06T20:20:21.002Z,24.02
2018-03-06T20:22:49.278Z,21.68
2018-03-06T20:25:23.303Z,24.90
2018-03-06T20:27:51.578Z,23.36
2018-03-06T20:30:25.558Z,23.16
2018-03-06T20:32:59.416Z,24.44
2018-03-06T20:35:27.671Z,25.48
2018-03-06T20:37:55.956Z,26.10
2018-03-06T20:40:30.019Z,27.12
2018-03-06T20:42:58.298Z,26.76
2018-03-06T20:45:26.561Z,25.80
2018-03-06T20:47:54.856Z,24.76
2018-03-06T20:50:23.157Z,24.16
2018-03-06T20:52:56.954Z,24.06
2018-03-06T20:55:25.254Z,25.72
2018-03-06T20:57:53.506Z,25.92
2018-03-06T21:00:21.758Z,24.08
2018-03-06T21:02:50.038Z,20.68
2018-03-06T21:05:18.324Z,21.44
2018-03-06T21:07:46.582Z,22.00
2018-03-06T21:10:14.830Z,20.82
2018-03-06T21:12:42.326Z,23.24
2018-03-06T21:15:11.930Z,22.10
2018-03-06T21:17:40.214Z,23.10
2018-03-06T21:20:08.490Z,23.36
2018-03-06T21:22:36.774Z,22.32
2018-03-06T21:25:05.099Z,22.42
2018-03-06T21:27:33.313Z,24.40
2018-03-06T21:30:01.603Z,22.14
2018-03-06T21:32:29.882Z,22.24
2018-03-06T21:34:58.174Z,22.92
2018-03-06T21:37:26.422Z,21.18
2018-03-06T21:39:54.701Z,21.62
2018-03-06T21:42:22.950Z,22.88
2018-03-06T21:44:51.230Z,23.72
2018-03-06T21:47:19.485Z,22.58
2018-03-06T21:49:47.778Z,24.14
2018-03-06T21:52:16.043Z,22.94
2018-03-06T21:54:44.306Z,23.90
2018-03-06T21:57:12.591Z,22.98
2018-03-06T21:59:41.752Z,24.72
2018-03-06T22:02:10.643Z,25.84
2018-03-06T22:04:41.448Z,24.72
2018-03-06T22:07:09.742Z,25.22
2018-03-06T22:09:38.026Z,24.76
2018-03-06T22:12:06.277Z,24.70
2018-03-06T22:14:35.483Z,23.58
2018-03-06T22:17:03.738Z,22.80
2018-03-06T22:19:32.018Z,23.02
2018-03-06T22:22:00.294Z,23.98
2018-03-06T22:24:28.546Z,21.08
2018-03-06T22:26:56.847Z,24.30
2018-03-06T22:29:25.094Z,22.42
2018-03-06T22:31:53.350Z,24.58
2018-03-06T22:34:21.623Z,24.00
2018-03-06T22:36:49.910Z,25.72
2018-03-06T22:39:18.163Z,25.00
2018-03-06T22:41:46.445Z,24.54
2018-03-06T22:44:14.701Z,24.64
2018-03-06T22:46:42.978Z,23.64
2018-03-06T22:49:11.258Z,25.12
2018-03-06T22:51:39.517Z,24.14
2018-03-06T22:54:07.795Z,24.60
2018-03-06T22:56:36.049Z,23.72
2018-03-06T22:59:04.334Z,23.68
2018-03-06T23:01:32.582Z,25.66
2018-03-06T23:04:00.858Z,26.60
2018-03-06T23:06:29.145Z,25.00
2018-03-06T23:08:57.402Z,25.30
2018-03-06T23:11:25.690Z,24.56
2018-03-06T23:13:53.938Z,28.40
2018-03-06T23:16:22.186Z,22.72
2018-03-06T23:18:50.462Z,24.44
2018-03-06T23:21:18.718Z,25.02
2018-03-06T23:23:46.999Z,27.16
2018-03-06T23:26:15.290Z,25.98
2018-03-06T23:28:43.542Z,24.84
2018-03-06T23:31:13.131Z,26.80
2018-03-06T23:33:42.355Z,25.36
2018-03-06T23:36:11.661Z,28.32
2018-03-06T23:38:41.530Z,26.62
2018-03-06T23:41:11.475Z,27.86
2018-03-06T23:43:39.821Z,28.06
2018-03-06T23:46:08.091Z,27.26
2018-03-06T23:48:36.370Z,24.42
2018-03-06T23:51:04.622Z,25.60
2018-03-06T23:53:32.901Z,26.92
2018-03-06T23:56:01.190Z,26.04
2018-03-06T23:58:29.450Z,26.32
